createdAt,value
2022-08-31T00:01:59.944Z,101493.81
2022-08-31T00:04:27.738Z,101491.69
2022-08-31T00:06:54.266Z,101492.28
2022-08-31T00:09:20.775Z,101489.13
2022-08-31T00:11:47.281Z,101474.41
2022-08-31T00:14:13.702Z,101488.19
2022-08-31T00:16:42.987Z,101482.31
2022-08-31T00:19:09.809Z,101486.47
2022-08-31T00:21:36.256Z,101482.25
2022-08-31T00:24:02.928Z,101479.09
2022-08-31T00:26:29.434Z,101474.03
2022-08-31T00:28:55.877Z,101479.00
2022-08-31T00:31:22.408Z,101481.28
2022-08-31T00:33:52.409Z,101475.19
2022-08-31T00:36:22.931Z,101473.91
2022-08-31T00:38:49.853Z,101473.25
2022-08-31T00:41:19.341Z,101468.22
2022-08-31T00:43:45.815Z,101468.63
2022-08-31T00:46:16.009Z,101453.72
2022-08-31T00:48:47.886Z,101473.97
2022-08-31T00:51:15.209Z,101466.38
2022-08-31T00:53:47.956Z,101467.63
2022-08-31T00:56:18.693Z,101461.53
2022-08-31T00:58:45.685Z,101482.81
2022-08-31T01:01:22.029Z,101466.03
2022-08-31T01:03:48.621Z,101472.69
2022-08-31T01:06:17.310Z,101475.81
2022-08-31T01:08:45.825Z,101475.31
2022-08-31T01:11:13.702Z,101476.53
2022-08-31T01:13:40.203Z,101477.78
2022-08-31T01:16:13.657Z,101479.00
2022-08-31T01:18:41.795Z,101478.53
2022-08-31T01:21:20.891Z,101467.00
2022-08-31T01:23:47.427Z,101479.09
2022-08-31T01:26:17.752Z,101472.00
2022-08-31T01:28:44.608Z,101478.00
2022-08-31T01:31:16.520Z,101480.94
2022-08-31T01:33:43.064Z,101483.16
2022-08-31T01:36:15.396Z,101477.28
2022-08-31T01:38:43.452Z,101485.81
2022-08-31T01:41:10.248Z,101487.03
2022-08-31T01:43:39.634Z,101493.69
2022-08-31T01:46:09.320Z,101488.41
2022-08-31T01:48:41.086Z,101481.50
2022-08-31T01:51:12.462Z,101496.28
2022-08-31T01:53:40.178Z,101492.06
2022-08-31T01:56:13.649Z,101490.19
2022-08-31T01:58:40.393Z,101495.16
2022-08-31T02:01:19.402Z,101501.81
2022-08-31T02:03:53.894Z,101496.78
2022-08-31T02:06:24.093Z,101493.38
2022-08-31T02:08:50.614Z,101501.75
2022-08-31T02:11:17.580Z,101502.97
2022-08-31T02:13:44.055Z,101507.53
2022-08-31T02:16:10.979Z,101507.91
2022-08-31T02:18:37.470Z,101503.50
2022-08-31T02:21:05.290Z,101503.88
2022-08-31T02:23:32.065Z,101509.50
2022-08-31T02:25:58.761Z,101512.59
2022-08-31T02:28:25.376Z,101506.50
2022-08-31T02:30:51.834Z,101510.41
2022-08-31T02:33:18.880Z,101518.94
2022-08-31T02:35:45.470Z,101513.50
2022-08-31T02:38:17.221Z,101512.13
2022-08-31T02:40:45.713Z,101511.69
2022-08-31T02:43:14.258Z,101509.13
2022-08-31T02:45:53.699Z,101507.66
2022-08-31T02:48:21.333Z,101506.16
2022-08-31T02:50:50.472Z,101511.94
2022-08-31T02:53:19.105Z,101506.88
2022-08-31T02:55:46.224Z,101504.53
2022-08-31T02:58:13.878Z,101507.63
2022-08-31T03:00:45.178Z,101504.25
2022-08-31T03:03:12.032Z,101501.91
2022-08-31T03:05:38.657Z,101509.22
2022-08-31T03:08:05.693Z,101498.91
2022-08-31T03:10:32.343Z,101497.38
2022-08-31T03:12:59.094Z,101497.56
2022-08-31T03:15:26.488Z,101496.06
2022-08-31T03:17:53.578Z,101495.59
2022-08-31T03:20:22.305Z,101495.78
2022-08-31T03:22:49.040Z,101490.69
2022-08-31T03:25:17.726Z,101491.91
2022-08-31T03:27:45.800Z,101486.69
2022-08-31T03:30:16.844Z,101488.72
2022-08-31T03:32:45.582Z,101484.50
2022-08-31T03:35:13.093Z,101483.00
2022-08-31T03:37:39.637Z,101486.09
2022-08-31T03:40:07.036Z,101491.03
2022-08-31T03:42:34.242Z,101495.97
2022-08-31T03:45:00.766Z,101502.59
2022-08-31T03:47:28.430Z,101506.69
2022-08-31T03:49:55.311Z,101495.34
2022-08-31T03:52:21.858Z,101492.00
2022-08-31T03:54:48.389Z,101496.06
2022-08-31T03:57:14.910Z,101495.59
2022-08-31T03:59:41.438Z,101501.34
2022-08-31T04:02:08.009Z,101502.56
2022-08-31T04:04:35.048Z,101494.78
2022-08-31T04:07:01.598Z,101497.84
2022-08-31T04:09:28.248Z,101501.75
2022-08-31T04:11:54.770Z,101499.41
2022-08-31T04:14:21.229Z,101494.34
2022-08-31T04:16:47.730Z,101496.38
2022-08-31T04:19:16.084Z,101496.72
2022-08-31T04:21:44.383Z,101501.47
2022-08-31T04:24:12.091Z,101500.81
2022-08-31T04:26:40.760Z,101494.75
2022-08-31T04:29:12.388Z,101491.38
2022-08-31T04:31:39.633Z,101490.69
2022-08-31T04:34:06.147Z,101498.13
2022-08-31T04:36:32.756Z,101498.50
2022-08-31T04:39:01.106Z,101490.53
2022-08-31T04:41:29.989Z,101495.31
2022-08-31T04:43:59.279Z,101499.03
2022-08-31T04:46:27.078Z,101518.16
2022-08-31T04:48:53.898Z,101501.25
2022-08-31T04:51:29.206Z,101505.00
2022-08-31T04:53:56.238Z,101503.13
2022-08-31T04:56:25.727Z,101505.00
2022-08-31T04:58:54.666Z,101510.41
2022-08-31T05:01:23.544Z,101505.00
2022-08-31T05:03:53.249Z,101515.63
2022-08-31T05:06:22.770Z,101506.31
2022-08-31T05:08:56.111Z,101512.41
2022-08-31T05:11:25.187Z,101511.38
2022-08-31T05:13:52.717Z,101517.47
2022-08-31T05:16:19.639Z,101517.28
2022-08-31T05:18:48.702Z,101517.94
2022-08-31T05:21:29.647Z,101535.06
2022-08-31T05:24:06.233Z,101519.44
2022-08-31T05:26:35.407Z,101518.81
2022-08-31T05:29:06.417Z,101523.88
2022-08-31T05:31:35.145Z,101514.22
2022-08-31T05:34:01.657Z,101523.19
2022-08-31T05:36:28.663Z,101528.59
2022-08-31T05:39:00.322Z,101528.25
2022-08-31T05:41:29.327Z,101522.00
2022-08-31T05:43:55.883Z,101524.72
2022-08-31T05:46:23.131Z,101511.31
2022-08-31T05:48:50.088Z,101527.56
2022-08-31T05:51:18.730Z,101527.41
2022-08-31T05:53:45.222Z,101529.28
2022-08-31T05:56:14.982Z,101533.66
2022-08-31T05:58:44.456Z,101542.47
2022-08-31T06:01:19.050Z,101523.34
2022-08-31T06:03:46.283Z,101535.03
2022-08-31T06:06:13.869Z,101542.78
2022-08-31T06:08:41.331Z,101532.63
2022-08-31T06:11:15.642Z,101536.84
2022-08-31T06:13:42.629Z,101542.91
2022-08-31T06:16:09.895Z,101540.19
2022-08-31T06:18:38.588Z,101546.28
2022-08-31T06:21:12.609Z,101549.84
2022-08-31T06:23:40.470Z,101546.50
2022-08-31T06:26:12.809Z,101557.31
2022-08-31T06:28:40.954Z,101543.78
2022-08-31T06:31:12.213Z,101550.19
2022-08-31T06:33:40.182Z,101547.50
2022-08-31T06:36:15.467Z,101561.03
2022-08-31T06:38:43.523Z,101559.38
2022-08-31T06:41:15.206Z,101560.19
2022-08-31T06:43:42.033Z,101570.19
2022-08-31T06:46:09.290Z,101563.75
2022-08-31T06:48:36.624Z,101561.88
2022-08-31T06:51:04.023Z,101559.84
2022-08-31T06:53:30.752Z,101565.09
2022-08-31T06:55:57.289Z,101562.19
2022-08-31T06:58:23.787Z,101562.03
2022-08-31T07:00:50.316Z,101560.03
2022-08-31T07:03:45.341Z,101561.69
2022-08-31T07:06:16.881Z,101560.34
2022-08-31T07:08:45.442Z,101570.81
2022-08-31T07:11:33.802Z,101576.91
2022-08-31T07:14:01.259Z,101577.56
2022-08-31T07:16:28.824Z,101569.09
2022-08-31T07:18:59.125Z,101581.44
2022-08-31T07:21:37.361Z,101578.38
2022-08-31T07:24:07.672Z,101592.56
2022-08-31T07:26:53.210Z,101586.63
2022-08-31T07:29:22.094Z,101594.59
2022-08-31T07:31:49.037Z,101593.41
2022-08-31T07:34:33.961Z,101589.47
2022-08-31T07:37:19.908Z,101597.94
2022-08-31T07:40:07.794Z,101597.38
2022-08-31T07:42:43.726Z,101606.31
2022-08-31T07:45:22.473Z,101607.25
2022-08-31T07:47:51.179Z,101600.09
2022-08-31T07:50:18.747Z,101606.31
2022-08-31T07:52:54.003Z,101599.63
2022-08-31T07:55:23.360Z,101609.84
2022-08-31T07:57:51.797Z,101612.19
2022-08-31T08:00:22.798Z,101620.53
2022-08-31T08:02:53.273Z,101614.28
2022-08-31T08:05:26.719Z,101618.03
2022-08-31T08:07:56.012Z,101620.78
2022-08-31T08:10:24.099Z,101620.13
2022-08-31T08:12:57.358Z,101606.53
2022-08-31T08:15:26.449Z,101625.78
2022-08-31T08:17:53.203Z,101617.78
2022-08-31T08:20:34.291Z,101623.38
2022-08-31T08:23:13.966Z,101625.03
2022-08-31T08:25:45.109Z,101628.06
2022-08-31T08:31:05.238Z,101624.53
2022-08-31T08:33:34.501Z,101630.69
2022-08-31T08:36:03.200Z,101627.66
2022-08-31T08:38:31.056Z,101618.13
2022-08-31T08:41:04.766Z,101632.91
2022-08-31T08:43:36.449Z,101621.44
2022-08-31T08:46:20.100Z,101634.34
2022-08-31T08:48:55.656Z,101633.59
2022-08-31T08:51:31.024Z,101632.00
2022-08-31T08:54:10.019Z,101628.72
2022-08-31T08:56:42.013Z,101637.38
2022-08-31T08:59:15.837Z,101646.88
2022-08-31T09:01:48.447Z,101634.97
2022-08-31T09:04:31.569Z,101652.81
2022-08-31T09:07:23.069Z,101653.50
2022-08-31T09:10:21.697Z,101652.69
2022-08-31T09:13:03.371Z,101642.84
2022-08-31T09:15:44.090Z,101650.19
2022-08-31T09:18:26.405Z,101650.00
2022-08-31T09:21:34.485Z,101642.28
2022-08-31T09:24:06.183Z,101640.25
2022-08-31T09:26:58.060Z,101645.09
2022-08-31T09:29:27.755Z,101643.41
2022-08-31T09:32:09.985Z,101645.09
2022-08-31T09:34:43.905Z,101637.13
2022-08-31T09:37:26.439Z,101646.38
2022-08-31T09:39:54.320Z,101638.81
2022-08-31T09:42:29.079Z,101633.34
2022-08-31T09:45:00.070Z,101636.72
2022-08-31T09:47:48.324Z,101636.06
2022-08-31T09:50:35.508Z,101639.22
2022-08-31T09:53:33.115Z,101636.72
2022-08-31T09:56:15.682Z,101632.94
2022-08-31T09:58:45.355Z,101627.47
2022-08-31T10:01:35.533Z,101631.25
2022-08-31T10:04:12.199Z,101635.00
2022-08-31T10:06:48.334Z,101629.97
2022-08-31T10:09:23.274Z,101624.72
2022-08-31T10:11:54.323Z,101638.34
2022-08-31T10:14:50.736Z,101628.25
2022-08-31T10:17:36.184Z,101625.91
2022-08-31T10:20:24.478Z,101626.50
2022-08-31T10:23:19.958Z,101618.50
2022-08-31T10:26:09.977Z,101612.34
2022-08-31T10:28:44.766Z,101610.00
2022-08-31T10:31:23.871Z,101615.84
2022-08-31T10:34:26.009Z,101614.50
2022-08-31T10:37:31.427Z,101612.78
2022-08-31T10:40:08.706Z,101602.16
2022-08-31T10:42:39.293Z,101614.75
2022-08-31T10:45:18.861Z,101625.66
2022-08-31T10:47:49.868Z,101619.72
2022-08-31T10:50:35.601Z,101615.94
2022-08-31T10:53:27.214Z,101608.31
2022-08-31T10:56:02.258Z,101603.69
2022-08-31T10:58:53.176Z,101606.25
2022-08-31T11:01:41.151Z,101610.22
2022-08-31T11:04:23.363Z,101610.41
2022-08-31T11:07:25.046Z,101610.72
2022-08-31T11:10:05.447Z,101607.25
2022-08-31T11:12:42.337Z,101605.31
2022-08-31T11:15:09.825Z,101597.25
2022-08-31T11:17:55.497Z,101600.34
2022-08-31T11:20:34.668Z,101603.09
2022-08-31T11:23:30.399Z,101607.50
2022-08-31T11:26:29.151Z,101604.56
2022-08-31T11:29:32.766Z,101607.66
2022-08-31T11:32:21.710Z,101608.28
2022-08-31T11:34:53.588Z,101609.75
2022-08-31T11:37:46.691Z,101587.59
2022-08-31T11:40:14.412Z,101594.75
2022-08-31T11:42:42.262Z,101588.19
2022-08-31T11:45:32.550Z,101590.50
2022-08-31T11:48:00.567Z,101582.00
2022-08-31T11:50:37.238Z,101583.25
2022-08-31T11:53:37.747Z,101575.78
2022-08-31T11:56:06.695Z,101585.03
2022-08-31T11:58:38.373Z,101570.41
2022-08-31T12:01:10.826Z,101566.97
2022-08-31T12:03:45.677Z,101570.31
2022-08-31T12:06:37.328Z,101578.69
2022-08-31T12:09:25.646Z,101570.59
2022-08-31T12:12:21.760Z,101570.53
2022-08-31T12:15:07.752Z,101567.22
2022-08-31T12:18:01.936Z,101570.50
2022-08-31T12:21:28.589Z,101567.78
2022-08-31T12:24:08.551Z,101557.94
2022-08-31T12:26:45.449Z,101580.03
2022-08-31T12:29:23.465Z,101556.75
2022-08-31T12:32:25.739Z,101552.97
2022-08-31T12:35:18.573Z,101556.75
2022-08-31T12:37:45.511Z,101554.25
2022-08-31T12:40:12.182Z,101555.09
2022-08-31T12:42:43.810Z,101562.03
2022-08-31T12:45:14.767Z,101555.22
2022-08-31T12:48:11.273Z,101554.06
2022-08-31T12:51:00.957Z,101550.56
2022-08-31T12:54:16.527Z,101548.69
2022-08-31T12:56:57.834Z,101550.63
2022-08-31T13:03:20.272Z,101539.53
2022-08-31T13:06:09.164Z,101544.09
2022-08-31T13:08:47.355Z,101540.97
2022-08-31T13:11:35.465Z,101537.03
2022-08-31T13:14:20.948Z,101527.84
2022-08-31T13:16:52.007Z,101528.78
2022-08-31T13:19:23.586Z,101535.47
2022-08-31T13:21:56.797Z,101527.47
2022-08-31T13:24:28.969Z,101525.53
2022-08-31T13:27:09.831Z,101525.78
2022-08-31T13:29:46.641Z,101519.44
2022-08-31T13:32:32.428Z,101526.38
2022-08-31T13:35:09.088Z,101514.88
2022-08-31T13:37:45.327Z,101509.97
2022-08-31T13:40:18.077Z,101502.34
2022-08-31T13:42:50.824Z,101502.06
2022-08-31T13:45:29.186Z,101503.28
2022-08-31T13:48:12.219Z,101501.13
